CPX302 Details

Departure: Daniel K Inouye International Airport (PHNL)
Arrival: Guam International Airport (PGUM)
Route: KEOLA2 NONNI BRIUN 2000N/17000W 1800N/18000E 1600N/17000E 1500N/16000E 1500N/15000E DEWSS


Current Weather Information
PHNL 232253Z 16009KT 10SM FEW025 FEW045 31/20 A3003 RMK AO2 SLP167 T03060200
PGUM 232254Z 14006KT 10SM FEW017 29/24 A2991 RMK AO2 SLP119 T02890239